Time;durP1;ratioP1;P1;durP2;ratioP2;P2;SDS_P1;SDS_P2;PMS_P1;PMS_P2;Temp;Humidity;BMP_temperature;BMP_pressure;BME280_temperature;BME280_humidity;BME280_pressure;Samples;Min_cycle;Max_cycle;Signal;HPM_P1;HPM_P2
2022/04/29 00:02:16;;;;;;;16.03;10.00;;;8.60;1.00;;;;;;5136309;27;20211;-62
2022/04/29 00:04:44;;;;;;;15.27;10.37;;;8.60;1.00;;;;;;5136100;27;20688;-61
2022/04/29 00:07:11;;;;;;;16.10;10.37;;;8.60;1.00;;;;;;5136049;27;20198;-61
2022/04/29 00:09:39;;;;;;;17.90;11.37;;;8.60;1.00;;;;;;5136292;27;20223;-62
2022/04/29 00:12:08;;;;;;;19.23;10.73;;;8.50;1.00;;;;;;5135894;27;20260;-62
2022/04/29 00:14:36;;;;;;;24.60;10.57;;;8.50;91.00;;;;;;5136197;27;20202;-62
2022/04/29 00:17:04;;;;;;;21.13;10.77;;;8.50;99.90;;;;;;5135932;27;20211;-62
2022/04/29 00:19:31;;;;;;;18.33;11.17;;;8.40;99.90;;;;;;5136087;27;20317;-62
2022/04/29 00:21:58;;;;;;;16.90;10.37;;;8.40;99.90;;;;;;5136026;27;20708;-61
2022/04/29 00:24:24;;;;;;;17.20;11.40;;;8.40;99.90;;;;;;5135813;27;20202;-62
2022/04/29 00:26:51;;;;;;;19.07;12.30;;;8.40;99.90;;;;;;5136132;27;20255;-62
2022/04/29 00:29:18;;;;;;;19.13;10.83;;;8.40;99.90;;;;;;5136457;27;20382;-62
2022/04/29 00:31:46;;;;;;;18.77;11.20;;;8.30;99.90;;;;;;5137849;27;20211;-62
2022/04/29 00:34:13;;;;;;;18.00;11.53;;;8.30;99.90;;;;;;5136582;27;20207;-61
2022/04/29 00:36:40;;;;;;;18.77;11.30;;;8.30;99.90;;;;;;5135847;27;20249;-62
2022/04/29 00:39:06;;;;;;;17.17;11.40;;;8.20;99.90;;;;;;5135740;27;20231;-61
2022/04/29 00:41:33;;;;;;;16.97;10.63;;;8.20;99.90;;;;;;5134847;27;20207;-61
2022/04/29 00:44:02;;;;;;;22.23;11.90;;;8.30;99.90;;;;;;5135675;27;20203;-61
2022/04/29 00:46:29;;;;;;;20.13;10.37;;;8.30;99.90;;;;;;5135393;27;20207;-61
2022/04/29 00:48:57;;;;;;;21.77;11.60;;;8.30;99.90;;;;;;5135584;27;20305;-61
2022/04/29 00:51:24;;;;;;;21.13;11.80;;;8.30;99.90;;;;;;5135543;27;20263;-59
2022/04/29 00:53:52;;;;;;;20.10;13.10;;;8.30;99.90;;;;;;5135399;27;20203;-61
2022/04/29 00:56:21;;;;;;;19.07;11.87;;;8.20;99.90;;;;;;5134793;27;20247;-61
2022/04/29 00:58:54;;;;;;;19.83;13.13;;;8.10;99.90;;;;;;5134984;27;20811;-61
2022/04/29 01:01:24;;;;;;;20.57;11.70;;;8.10;99.90;;;;;;5135554;27;20231;-62
2022/04/29 01:03:54;;;;;;;18.83;12.60;;;8.10;99.90;;;;;;5135058;27;20209;-61
2022/04/29 01:06:24;;;;;;;18.40;12.20;;;8.10;99.90;;;;;;5135004;27;20218;-61
2022/04/29 01:08:51;;;;;;;17.97;11.77;;;8.00;1.00;;;;;;5134855;27;20214;-61
2022/04/29 01:11:22;;;;;;;21.03;12.10;;;8.00;1.00;;;;;;5135088;27;20575;-61
2022/04/29 01:13:50;;;;;;;18.63;11.90;;;7.90;1.00;;;;;;5135368;27;20207;-61
2022/04/29 01:16:18;;;;;;;23.30;13.27;;;7.90;1.00;;;;;;5134691;27;20293;-61
2022/04/29 01:18:45;;;;;;;26.27;12.83;;;7.80;73.30;;;;;;5134878;27;20248;-62
2022/04/29 01:21:12;;;;;;;17.20;12.37;;;7.80;99.90;;;;;;5134725;27;20259;-62
2022/04/29 01:23:41;;;;;;;19.47;13.40;;;7.80;99.90;;;;;;5134813;27;20267;-62
2022/04/29 01:26:09;;;;;;;21.97;12.80;;;7.80;99.90;;;;;;5134403;27;20203;-62
2022/04/29 01:28:36;;;;;;;22.60;13.07;;;7.70;99.90;;;;;;5134849;27;20287;-62
2022/04/29 01:31:06;;;;;;;20.13;12.17;;;7.70;99.90;;;;;;5134933;27;20208;-62
2022/04/29 01:33:33;;;;;;;24.30;13.70;;;7.60;1.00;;;;;;5134794;27;20264;-61
2022/04/29 01:36:00;;;;;;;23.00;13.77;;;7.60;1.00;;;;;;5134456;27;20203;-61
2022/04/29 01:38:26;;;;;;;19.77;13.47;;;7.60;99.90;;;;;;5134798;27;20302;-61
2022/04/29 01:40:54;;;;;;;21.93;13.07;;;7.60;99.90;;;;;;5134535;27;20628;-62
2022/04/29 01:43:21;;;;;;;20.20;13.40;;;7.50;99.90;;;;;;5134363;27;20228;-62
2022/04/29 01:45:48;;;;;;;21.07;12.37;;;7.50;1.00;;;;;;5134499;27;20203;-62
2022/04/29 01:48:14;;;;;;;19.13;12.30;;;7.60;99.90;;;;;;5134011;27;20651;-62
2022/04/29 01:50:41;;;;;;;21.60;13.93;;;7.50;1.00;;;;;;5134160;27;20780;-62
2022/04/29 01:53:08;;;;;;;19.60;13.57;;;7.50;1.00;;;;;;5133170;27;20245;-61
2022/04/29 01:55:34;;;;;;;20.03;13.13;;;7.40;89.30;;;;;;5134120;27;20202;-61
2022/04/29 01:58:02;;;;;;;20.37;12.67;;;7.40;99.90;;;;;;5133825;27;20210;-61
2022/04/29 02:00:29;;;;;;;22.50;13.33;;;7.40;99.90;;;;;;5133894;27;20630;-61
2022/04/29 02:02:56;;;;;;;25.67;13.67;;;7.40;99.90;;;;;;5134152;27;20263;-62
2022/04/29 02:05:23;;;;;;;20.90;14.00;;;7.40;86.60;;;;;;5133987;27;20212;-62
2022/04/29 02:07:50;;;;;;;23.63;13.40;;;7.30;99.90;;;;;;5133878;27;20206;-62
2022/04/29 02:10:17;;;;;;;21.00;12.57;;;7.30;1.00;;;;;;5133637;27;20708;-61
2022/04/29 02:12:45;;;;;;;21.30;12.77;;;7.20;99.90;;;;;;5133852;27;20214;-62
2022/04/29 02:15:14;;;;;;;23.53;13.57;;;7.20;1.00;;;;;;5133963;27;20206;-62
2022/04/29 02:17:40;;;;;;;22.77;13.07;;;7.20;99.90;;;;;;5133172;27;20201;-61
2022/04/29 02:20:08;;;;;;;20.03;13.47;;;7.10;99.90;;;;;;5133773;27;20278;-61
2022/04/29 02:22:35;;;;;;;25.47;14.53;;;7.10;1.00;;;;;;5133556;27;20206;-62
2022/04/29 02:25:02;;;;;;;19.77;11.97;;;7.00;99.90;;;;;;5133751;27;20206;-62
2022/04/29 02:27:28;;;;;;;22.10;12.83;;;7.00;6.90;;;;;;5133330;27;20209;-61
2022/04/29 02:29:55;;;;;;;18.73;12.43;;;7.00;99.90;;;;;;5133542;27;20222;-62
2022/04/29 02:32:24;;;;;;;21.03;13.20;;;6.90;99.90;;;;;;5133482;27;20239;-62
2022/04/29 02:34:51;;;;;;;21.73;12.50;;;6.90;99.90;;;;;;5133588;27;20586;-62
2022/04/29 02:37:18;;;;;;;22.17;12.70;;;6.90;99.90;;;;;;5133155;27;20740;-62
2022/04/29 02:39:45;;;;;;;17.00;11.70;;;6.90;1.00;;;;;;5133212;27;20229;-61
2022/04/29 02:42:11;;;;;;;17.67;10.97;;;6.90;1.00;;;;;;5133325;27;20374;-62
2022/04/29 02:44:38;;;;;;;14.83;10.60;;;6.80;99.90;;;;;;5133076;27;20675;-62
2022/04/29 02:47:08;;;;;;;19.63;11.30;;;6.80;1.00;;;;;;5133143;27;20277;-62
2022/04/29 02:49:38;;;;;;;19.13;11.57;;;6.80;1.00;;;;;;5133762;27;20225;-60
2022/04/29 02:52:05;;;;;;;24.00;11.27;;;6.70;99.90;;;;;;5133180;27;20209;-62
2022/04/29 02:54:32;;;;;;;18.63;10.70;;;6.70;99.90;;;;;;5133292;27;20200;-59
2022/04/29 02:56:59;;;;;;;17.73;11.00;;;6.70;99.90;;;;;;5132682;27;20214;-62
2022/04/29 02:59:26;;;;;;;18.93;10.53;;;6.70;99.90;;;;;;5132815;27;20236;-61
2022/04/29 03:01:53;;;;;;;19.03;10.53;;;6.70;77.70;;;;;;5133484;27;20206;-62
2022/04/29 03:04:20;;;;;;;21.97;11.37;;;6.70;99.90;;;;;;5133145;27;20238;-62
2022/04/29 03:06:48;;;;;;;19.03;10.83;;;6.60;1.00;;;;;;5132648;27;20212;-61
2022/04/29 03:09:15;;;;;;;17.57;9.57;;;6.60;59.30;;;;;;5132890;27;20220;-61
2022/04/29 03:11:43;;;;;;;17.57;9.73;;;6.60;57.30;;;;;;5132590;27;20247;-61
2022/04/29 03:14:11;;;;;;;14.40;10.10;;;6.60;99.90;;;;;;5132938;27;20208;-61
2022/04/29 03:16:37;;;;;;;20.13;10.67;;;6.60;99.90;;;;;;5132836;27;20254;-61
2022/04/29 03:19:05;;;;;;;19.37;10.50;;;6.60;34.90;;;;;;5132343;27;20275;-61
2022/04/29 03:21:33;;;;;;;21.20;10.03;;;6.50;99.90;;;;;;5132844;27;20206;-61
2022/04/29 03:24:01;;;;;;;15.87;10.10;;;6.50;99.90;;;;;;5132575;27;20695;-62
2022/04/29 03:26:28;;;;;;;14.97;9.47;;;6.50;99.90;;;;;;5132263;27;20256;-62
2022/04/29 03:28:55;;;;;;;18.90;10.30;;;6.50;99.90;;;;;;5132906;27;20227;-62
2022/04/29 03:31:22;;;;;;;20.80;10.23;;;6.50;99.90;;;;;;5132921;27;20798;-62
2022/04/29 03:33:48;;;;;;;18.13;9.50;;;6.50;99.90;;;;;;5132725;27;20708;-61
2022/04/29 03:36:15;;;;;;;17.83;11.00;;;6.40;99.90;;;;;;5132003;27;20203;-62
2022/04/29 03:38:42;;;;;;;20.50;10.43;;;6.40;99.90;;;;;;5132636;27;20203;-60
2022/04/29 03:41:10;;;;;;;18.93;11.07;;;6.40;99.90;;;;;;5132431;27;20208;-62
2022/04/29 03:43:37;;;;;;;17.90;9.77;;;6.40;99.90;;;;;;5132799;27;20211;-62
2022/04/29 03:46:05;;;;;;;19.13;10.00;;;6.40;99.90;;;;;;5132439;27;20268;-61
2022/04/29 03:49:35;;;;;;;14.93;9.50;;;6.40;99.90;;;;;;5132437;27;20221;-61
2022/04/29 03:51:20;;;;;;;17.27;9.30;;;6.30;99.90;;;;;;5132354;27;20276;-62
2022/04/29 03:53:48;;;;;;;18.27;10.10;;;6.30;99.90;;;;;;5132533;27;20231;-59
2022/04/29 03:56:17;;;;;;;25.63;11.07;;;6.30;1.00;;;;;;5132164;27;20296;-61
2022/04/29 03:58:43;;;;;;;16.33;10.27;;;6.20;1.00;;;;;;5132224;27;20297;-61
2022/04/29 04:01:11;;;;;;;19.03;10.23;;;6.20;1.00;;;;;;5132616;27;20211;-61
2022/04/29 04:03:39;;;;;;;17.07;9.10;;;6.20;1.00;;;;;;5132540;27;20207;-61
2022/04/29 04:08:49;;;;;;;15.13;9.27;;;6.20;1.00;;;;;;5132357;27;20210;-62
2022/04/29 04:11:18;;;;;;;21.60;10.53;;;6.20;1.00;;;;;;5132172;27;20273;-62
2022/04/29 04:13:45;;;;;;;17.77;9.70;;;6.10;1.00;;;;;;5132487;27;20204;-61
2022/04/29 04:16:12;;;;;;;12.87;9.13;;;6.10;53.10;;;;;;5133830;27;20207;-61
2022/04/29 04:18:38;;;;;;;19.47;10.37;;;6.00;99.90;;;;;;5136220;27;20256;-62
2022/04/29 04:21:05;;;;;;;18.63;10.67;;;6.00;99.90;;;;;;5136115;27;20223;-61
2022/04/29 04:23:32;;;;;;;21.67;11.17;;;5.90;99.90;;;;;;5136191;27;20494;-59
2022/04/29 04:25:58;;;;;;;18.60;10.40;;;5.90;99.90;;;;;;5135759;27;20436;-62
2022/04/29 04:28:27;;;;;;;18.27;9.83;;;5.90;99.90;;;;;;5135872;27;20204;-61
2022/04/29 04:30:54;;;;;;;20.53;10.23;;;6.00;1.00;;;;;;5135786;27;20465;-61
2022/04/29 04:33:20;;;;;;;18.03;9.50;;;6.00;99.90;;;;;;5135676;27;20445;-62
2022/04/29 04:35:47;;;;;;;14.03;8.90;;;6.00;99.90;;;;;;5136032;27;20622;-61
2022/04/29 04:38:14;;;;;;;18.70;9.93;;;6.10;99.90;;;;;;5135164;27;20207;-61
2022/04/29 04:40:40;;;;;;;19.43;9.47;;;6.10;99.90;;;;;;5135798;27;20606;-61
2022/04/29 04:43:07;;;;;;;14.87;9.43;;;6.20;99.90;;;;;;5136446;27;20213;-61
2022/04/29 04:45:35;;;;;;;18.40;9.27;;;6.10;99.90;;;;;;5135951;27;20228;-61
2022/04/29 04:48:02;;;;;;;20.07;9.53;;;6.10;99.90;;;;;;5136908;27;20208;-61
2022/04/29 04:50:28;;;;;;;19.73;9.80;;;6.10;99.90;;;;;;5134990;27;20308;-61
2022/04/29 04:52:55;;;;;;;16.97;9.60;;;6.10;99.90;;;;;;5136292;27;20204;-57
2022/04/29 04:55:22;;;;;;;19.33;9.13;;;6.10;99.90;;;;;;5134815;27;20212;-61
2022/04/29 04:57:49;;;;;;;19.17;9.60;;;6.20;99.90;;;;;;5134987;27;20199;-61
2022/04/29 05:00:16;;;;;;;15.63;9.33;;;6.20;99.90;;;;;;5134997;27;20228;-61
2022/04/29 05:02:44;;;;;;;19.07;9.50;;;6.30;99.90;;;;;;5135080;27;20206;-60
2022/04/29 05:05:11;;;;;;;17.33;8.33;;;6.30;99.90;;;;;;5135204;27;20213;-61
2022/04/29 05:07:38;;;;;;;20.87;9.60;;;6.40;1.00;;;;;;5134609;27;20295;-59
2022/04/29 05:10:07;;;;;;;20.57;9.00;;;6.40;1.00;;;;;;5134999;27;20219;-61
2022/04/29 05:12:38;;;;;;;17.13;8.70;;;6.30;99.90;;;;;;5134618;27;20820;-60
2022/04/29 05:15:06;;;;;;;15.77;9.13;;;6.40;99.90;;;;;;5135356;27;20209;-58
2022/04/29 05:17:33;;;;;;;19.27;9.60;;;6.40;99.90;;;;;;5134744;27;20448;-59
2022/04/29 05:20:01;;;;;;;18.23;8.77;;;6.40;99.90;;;;;;5134457;27;20288;-61
2022/04/29 05:22:29;;;;;;;23.17;9.33;;;6.40;99.90;;;;;;5131505;27;20205;-62
2022/04/29 05:24:56;;;;;;;18.33;8.67;;;6.50;99.90;;;;;;5127193;27;20210;-54
2022/04/29 05:27:22;;;;;;;17.07;8.43;;;6.60;1.00;;;;;;5133232;27;20743;-59
2022/04/29 05:29:49;;;;;;;18.13;9.40;;;6.60;1.00;;;;;;5134345;27;20223;-57
2022/04/29 05:32:17;;;;;;;16.83;9.27;;;6.60;99.90;;;;;;5134003;27;20209;-58
2022/04/29 05:34:43;;;;;;;16.30;9.23;;;6.70;75.20;;;;;;5133999;27;20208;-60
2022/04/29 05:37:12;;;;;;;18.90;9.27;;;6.70;99.90;;;;;;5133409;27;20269;-58
2022/04/29 05:42:23;;;;;;;23.20;9.80;;;6.70;64.60;;;;;;5133935;27;20841;-60
2022/04/29 05:44:50;;;;;;;19.37;9.57;;;6.70;1.00;;;;;;5133533;27;20234;-61
2022/04/29 05:47:17;;;;;;;19.40;10.07;;;6.70;1.00;;;;;;5133371;27;20742;-60
2022/04/29 05:49:44;;;;;;;19.50;9.50;;;6.60;99.90;;;;;;5133355;27;20268;-61
2022/04/29 05:52:12;;;;;;;22.50;10.17;;;6.70;1.00;;;;;;5133824;27;20752;-63
2022/04/29 05:54:39;;;;;;;23.30;9.93;;;6.70;1.00;;;;;;5134168;27;20201;-60
2022/04/29 05:57:06;;;;;;;17.80;9.23;;;6.70;99.90;;;;;;5133160;27;20213;-61
2022/04/29 05:59:33;;;;;;;21.47;9.43;;;6.80;1.00;;;;;;5133552;27;20682;-60
2022/04/29 06:02:00;;;;;;;18.20;9.97;;;6.90;1.00;;;;;;5133269;27;20661;-62
2022/04/29 06:04:27;;;;;;;19.37;9.57;;;6.90;99.90;;;;;;5133307;27;20206;-57
2022/04/29 06:06:53;;;;;;;20.77;9.57;;;7.00;1.00;;;;;;5132548;27;20635;-54
2022/04/29 06:09:21;;;;;;;20.67;10.00;;;7.10;1.00;;;;;;5132270;27;20220;-58
2022/04/29 06:11:48;;;;;;;20.80;9.83;;;7.20;53.00;;;;;;5133376;27;20220;-57
2022/04/29 06:14:15;;;;;;;16.73;8.90;;;7.30;1.00;;;;;;5133309;27;20203;-58
2022/04/29 06:16:41;;;;;;;19.03;9.37;;;7.40;99.90;;;;;;5132644;27;20202;-60
2022/04/29 06:19:08;;;;;;;18.43;9.33;;;7.60;1.00;;;;;;5132842;27;20227;-58
2022/04/29 06:21:36;;;;;;;18.03;9.43;;;7.70;99.90;;;;;;5133015;27;20222;-60
2022/04/29 06:24:02;;;;;;;14.03;9.17;;;7.80;1.00;;;;;;5133211;27;20293;-59
2022/04/29 06:26:30;;;;;;;20.30;9.27;;;8.00;1.00;;;;;;5132239;27;20256;-58
2022/04/29 06:28:57;;;;;;;18.17;9.83;;;8.20;29.50;;;;;;5132934;27;20290;-60
2022/04/29 06:31:24;;;;;;;25.10;9.00;;;8.30;99.90;;;;;;5132749;27;20668;-59
2022/04/29 06:33:50;;;;;;;18.53;9.70;;;8.40;99.90;;;;;;5132817;27;20715;-59
2022/04/29 06:36:17;;;;;;;13.87;8.57;;;8.40;1.00;;;;;;5132753;27;20199;-60
2022/04/29 06:38:44;;;;;;;18.03;8.80;;;8.40;14.90;;;;;;5132041;27;20208;-59
2022/04/29 06:41:10;;;;;;;21.97;9.93;;;8.50;99.90;;;;;;5132322;27;20219;-58
2022/04/29 06:43:38;;;;;;;23.60;9.83;;;8.60;99.90;;;;;;5132448;27;20206;-59
2022/04/29 06:46:05;;;;;;;17.30;8.83;;;8.60;99.90;;;;;;5132343;27;20203;-59
2022/04/29 06:48:32;;;;;;;27.07;9.30;;;8.70;99.90;;;;;;5132303;27;20556;-59
2022/04/29 06:50:59;;;;;;;18.00;9.33;;;8.70;99.90;;;;;;5132665;27;20203;-58
2022/04/29 06:53:26;;;;;;;17.90;9.67;;;8.70;99.90;;;;;;5133103;27;20204;-60
2022/04/29 06:55:53;;;;;;;18.93;8.37;;;8.80;99.90;;;;;;5131873;27;20203;-60
2022/04/29 06:58:20;;;;;;;21.30;8.97;;;9.00;99.90;;;;;;5132780;27;20199;-60
2022/04/29 07:00:49;;;;;;;17.13;9.67;;;9.00;99.90;;;;;;5132076;27;20219;-60
2022/04/29 07:03:15;;;;;;;18.97;9.07;;;9.00;27.10;;;;;;5132254;27;20207;-60
2022/04/29 07:05:42;;;;;;;17.17;10.00;;;9.10;95.90;;;;;;5132072;27;20248;-59
2022/04/29 07:08:09;;;;;;;17.07;9.60;;;9.00;55.60;;;;;;5131760;27;20229;-59
2022/04/29 07:10:36;;;;;;;22.23;9.33;;;9.00;60.40;;;;;;5132102;27;20781;-60
2022/04/29 07:13:03;;;;;;;14.57;8.90;;;9.00;1.00;;;;;;5132317;27;20275;-61
2022/04/29 07:15:31;;;;;;;16.83;9.73;;;9.00;4.00;;;;;;5131630;27;20203;-62
2022/04/29 07:17:59;;;;;;;20.07;10.10;;;9.00;55.80;;;;;;5132146;27;20638;-60
2022/04/29 07:20:26;;;;;;;19.23;9.23;;;9.00;48.80;;;;;;5131589;27;20234;-59
2022/04/29 07:22:52;;;;;;;18.50;10.00;;;8.90;99.90;;;;;;5132312;27;20203;-60
2022/04/29 07:25:20;;;;;;;20.23;10.30;;;8.90;78.90;;;;;;5132001;27;20202;-60
2022/04/29 07:27:47;;;;;;;20.20;10.20;;;8.90;94.30;;;;;;5131853;27;20264;-58
2022/04/29 07:30:14;;;;;;;19.83;10.87;;;9.00;99.90;;;;;;5132013;27;20219;-58
2022/04/29 07:32:40;;;;;;;21.87;10.10;;;9.10;40.40;;;;;;5131961;27;20426;-59
2022/04/29 07:43:22;;;;;;;23.40;10.13;;;9.50;1.00;;;;;;5132033;27;20210;-56
2022/04/29 07:45:51;;;;;;;20.00;10.70;;;9.70;1.00;;;;;;5131729;27;20298;-54
2022/04/29 07:48:18;;;;;;;14.90;9.17;;;10.00;1.00;;;;;;5132116;27;20209;-56
2022/04/29 07:50:46;;;;;;;20.03;10.50;;;10.40;1.00;;;;;;5134678;27;20236;-56
2022/04/29 07:53:14;;;;;;;19.80;9.47;;;10.60;1.00;;;;;;5136065;27;20213;-56
2022/04/29 07:55:41;;;;;;;23.17;11.07;;;10.90;1.00;;;;;;5135669;27;20208;-55
2022/04/29 07:58:09;;;;;;;18.97;10.77;;;11.20;99.90;;;;;;5135708;27;20205;-61
2022/04/29 08:00:37;;;;;;;16.63;9.33;;;11.50;99.90;;;;;;5136132;27;20313;-62
2022/04/29 08:03:04;;;;;;;20.53;10.00;;;11.70;99.90;;;;;;5135485;27;20206;-60
2022/04/29 08:05:31;;;;;;;22.60;10.97;;;11.70;99.90;;;;;;5135492;27;20591;-61
2022/04/29 08:08:00;;;;;;;13.57;9.03;;;11.90;99.90;;;;;;5135325;27;20289;-59
2022/04/29 08:10:27;;;;;;;13.73;9.17;;;11.90;99.90;;;;;;5135778;27;20257;-59
2022/04/29 08:12:54;;;;;;;22.43;10.37;;;11.90;99.90;;;;;;5135672;27;20210;-59
2022/04/29 08:15:20;;;;;;;19.33;9.63;;;12.20;99.90;;;;;;5135144;27;20207;-60
2022/04/29 08:17:49;;;;;;;15.70;8.73;;;12.20;99.90;;;;;;5135061;27;20754;-58
2022/04/29 08:20:15;;;;;;;20.20;9.73;;;12.20;99.90;;;;;;5134811;27;20276;-61
2022/04/29 08:22:42;;;;;;;16.10;10.17;;;12.10;99.90;;;;;;5135747;27;20255;-61
2022/04/29 08:25:10;;;;;;;16.67;9.53;;;12.20;99.90;;;;;;5135000;27;20203;-61
2022/04/29 08:27:37;;;;;;;15.27;9.73;;;12.10;99.90;;;;;;5135142;27;20206;-62
2022/04/29 08:30:06;;;;;;;20.60;9.70;;;12.10;99.90;;;;;;5135536;27;20227;-61
2022/04/29 08:32:38;;;;;;;15.10;9.03;;;12.30;99.90;;;;;;5134684;27;20555;-61
2022/04/29 08:35:05;;;;;;;15.63;9.80;;;12.40;99.90;;;;;;5135299;27;20206;-61
2022/04/29 08:37:31;;;;;;;14.33;9.43;;;12.30;99.90;;;;;;5135069;27;20222;-64
2022/04/29 08:39:59;;;;;;;20.40;9.60;;;12.40;99.90;;;;;;5134812;27;20777;-61
2022/04/29 08:42:28;;;;;;;17.17;9.43;;;12.40;99.90;;;;;;5135069;27;20804;-61
2022/04/29 08:44:55;;;;;;;16.63;9.77;;;12.60;99.90;;;;;;5134431;27;20294;-61
2022/04/29 08:47:22;;;;;;;15.60;9.47;;;12.50;99.90;;;;;;5134454;27;20203;-61
2022/04/29 08:49:50;;;;;;;15.77;9.80;;;12.30;99.90;;;;;;5134803;27;20235;-60
2022/04/29 08:52:17;;;;;;;23.53;10.40;;;12.20;99.90;;;;;;5135006;27;20244;-59
2022/04/29 09:00:23;;;;;;;15.23;9.87;;;12.10;99.90;;;;;;5134991;27;20691;-58
2022/04/29 09:02:50;;;;;;;17.30;10.63;;;12.10;99.90;;;;;;5135213;27;20199;-60
2022/04/29 09:05:17;;;;;;;17.77;10.20;;;12.20;99.90;;;;;;5134975;27;20206;-61
2022/04/29 09:07:54;;;;;;;23.97;9.67;;;12.30;99.90;;;;;;5134589;27;20202;-61
2022/04/29 09:10:22;;;;;;;19.53;9.20;;;12.30;99.90;;;;;;5135425;27;20268;-63
2022/04/29 09:12:50;;;;;;;15.30;10.10;;;12.50;99.90;;;;;;5137260;27;20252;-64
2022/04/29 09:15:18;;;;;;;16.77;9.83;;;12.50;99.90;;;;;;5136476;27;20665;-64
2022/04/29 09:17:47;;;;;;;15.80;8.60;;;12.80;99.90;;;;;;5134227;27;20207;-65
2022/04/29 09:20:16;;;;;;;16.97;8.93;;;12.70;99.90;;;;;;5134535;27;20310;-63
2022/04/29 09:22:49;;;;;;;16.60;8.47;;;12.70;99.90;;;;;;5135003;27;20214;-63
2022/04/29 09:25:16;;;;;;;16.43;9.10;;;12.80;99.90;;;;;;5134152;27;20209;-60
2022/04/29 09:27:59;;;;;;;14.23;8.73;;;12.90;99.90;;;;;;5134001;27;20204;-63
2022/04/29 09:30:35;;;;;;;16.67;8.70;;;12.90;99.90;;;;;;5134361;27;20230;-63
2022/04/29 09:33:02;;;;;;;17.13;9.20;;;13.20;99.90;;;;;;5133451;27;20740;-62
2022/04/29 09:35:38;;;;;;;11.97;7.70;;;13.30;99.90;;;;;;5134053;27;20207;-62
2022/04/29 09:40:51;;;;;;;18.07;9.13;;;13.20;99.90;;;;;;5133591;27;20701;-62
2022/04/29 09:43:32;;;;;;;16.10;8.63;;;13.30;99.90;;;;;;5133775;27;20199;-62
2022/04/29 09:46:13;;;;;;;12.00;7.37;;;13.50;99.90;;;;;;5133240;27;20293;-62
2022/04/29 09:48:58;;;;;;;17.03;8.93;;;13.50;99.90;;;;;;5133801;27;20203;-60
2022/04/29 09:51:55;;;;;;;15.50;8.57;;;13.70;99.90;;;;;;5133346;27;20202;-62
2022/04/29 09:54:24;;;;;;;15.40;8.87;;;13.50;99.90;;;;;;5069995;28;20702;-61
2022/04/29 09:57:09;;;;;;;13.93;7.80;;;13.40;99.90;;;;;;5118961;27;20631;-62
2022/04/29 09:59:41;;;;;;;14.40;8.23;;;13.20;99.90;;;;;;5133322;27;20586;-61
2022/04/29 10:02:09;;;;;;;12.33;8.37;;;13.20;99.90;;;;;;5132937;27;20224;-63
2022/04/29 10:04:39;;;;;;;16.23;9.43;;;13.30;99.90;;;;;;5133570;27;20279;-63
2022/04/29 10:07:08;;;;;;;16.53;9.47;;;13.40;99.90;;;;;;5133051;27;20206;-63
2022/04/29 10:09:36;;;;;;;16.53;10.37;;;13.30;99.90;;;;;;5132844;27;20223;-62
2022/04/29 10:12:05;;;;;;;19.30;11.00;;;13.30;99.90;;;;;;5132802;27;20205;-64
2022/04/29 10:14:36;;;;;;;18.97;10.20;;;13.40;99.90;;;;;;5131873;27;20209;-62
2022/04/29 10:22:41;;;;;;;18.83;11.73;;;13.70;99.90;;;;;;5133046;27;20246;-60
2022/04/29 10:25:10;;;;;;;24.57;12.03;;;13.80;99.90;;;;;;5132476;27;20207;-60
2022/04/29 10:27:39;;;;;;;21.20;12.43;;;13.90;99.90;;;;;;5132480;27;20210;-59
2022/04/29 10:30:07;;;;;;;18.00;11.80;;;14.00;99.90;;;;;;5132897;27;20227;-61
2022/04/29 10:33:06;;;;;;;17.70;11.93;;;14.20;99.90;;;;;;5132645;27;20736;-60
2022/04/29 10:35:50;;;;;;;20.47;11.00;;;14.40;99.90;;;;;;5132668;27;20233;-62
2022/04/29 10:38:18;;;;;;;18.33;11.03;;;14.40;99.90;;;;;;5132015;27;20205;-62
2022/04/29 10:40:48;;;;;;;17.93;9.13;;;14.30;99.90;;;;;;5132707;27;20226;-62
2022/04/29 10:43:18;;;;;;;18.07;10.80;;;13.80;99.90;;;;;;5132591;27;20692;-62
2022/04/29 10:46:16;;;;;;;17.10;9.90;;;13.80;99.90;;;;;;5132138;27;20299;-61
2022/04/29 10:48:44;;;;;;;12.03;7.10;;;13.70;99.90;;;;;;5132793;27;20205;-61
2022/04/29 10:51:12;;;;;;;17.83;9.00;;;13.80;99.90;;;;;;5132126;27;20733;-64
2022/04/29 10:53:40;;;;;;;20.97;9.43;;;13.80;99.90;;;;;;5132699;27;20258;-64
2022/04/29 10:56:36;;;;;;;18.40;8.53;;;13.80;99.90;;;;;;5131592;27;20211;-64
2022/04/29 10:59:21;;;;;;;13.20;7.80;;;14.20;99.90;;;;;;5132280;27;20226;-62
2022/04/29 11:02:04;;;;;;;13.70;6.13;;;14.10;99.90;;;;;;5132272;27;20222;-61
2022/04/29 11:04:47;;;;;;;13.40;7.13;;;13.80;99.90;;;;;;5131969;27;20206;-61
2022/04/29 11:07:37;;;;;;;18.00;8.53;;;13.90;99.90;;;;;;5129831;27;20205;-63
2022/04/29 11:10:05;;;;;;;11.73;6.87;;;13.90;99.90;;;;;;5131953;27;20223;-62
2022/04/29 11:12:32;;;;;;;16.93;7.83;;;14.10;99.90;;;;;;5132202;27;20304;-63
2022/04/29 11:15:14;;;;;;;12.23;7.17;;;13.80;99.90;;;;;;5131572;27;20210;-61
2022/04/29 11:17:41;;;;;;;14.23;8.03;;;13.70;99.90;;;;;;5132302;27;20213;-62
2022/04/29 11:20:32;;;;;;;11.03;6.27;;;13.60;99.90;;;;;;5132118;27;20231;-62
2022/04/29 11:25:57;;;;;;;11.17;6.90;;;13.80;99.90;;;;;;5131333;27;20571;-62
2022/04/29 11:28:24;;;;;;;10.03;5.93;;;14.20;99.90;;;;;;5132277;27;20210;-62
2022/04/29 11:30:59;;;;;;;16.20;7.40;;;14.20;99.90;;;;;;5132720;27;20275;-62
2022/04/29 11:33:26;;;;;;;12.67;7.57;;;14.30;99.90;;;;;;5131771;27;20226;-62
2022/04/29 11:36:02;;;;;;;14.17;5.90;;;14.50;99.90;;;;;;5131373;27;20733;-60
2022/04/29 11:38:31;;;;;;;11.53;6.00;;;14.50;99.90;;;;;;5131910;27;20209;-61
2022/04/29 11:41:00;;;;;;;16.67;7.67;;;14.50;99.90;;;;;;5131974;27;20290;-63
2022/04/29 11:43:28;;;;;;;13.77;6.47;;;14.60;99.90;;;;;;5132096;27;20210;-61
2022/04/29 11:46:07;;;;;;;14.80;7.47;;;14.20;99.90;;;;;;5131111;27;20205;-61
2022/04/29 11:48:35;;;;;;;17.13;7.40;;;14.20;99.90;;;;;;5131698;27;20209;-61
2022/04/29 11:51:05;;;;;;;14.73;6.90;;;14.30;99.90;;;;;;5131368;27;20237;-62
2022/04/29 11:53:32;;;;;;;11.57;6.87;;;14.50;99.90;;;;;;5131963;27;20207;-61
2022/04/29 11:55:59;;;;;;;12.47;6.70;;;14.60;99.90;;;;;;5130739;27;20202;-61
2022/04/29 11:58:30;;;;;;;12.13;7.03;;;14.50;99.90;;;;;;5131613;27;20211;-61
2022/04/29 12:00:57;;;;;;;15.77;7.27;;;14.20;99.90;;;;;;5131499;27;20313;-61
2022/04/29 12:03:25;;;;;;;9.93;7.07;;;14.10;99.90;;;;;;5131368;27;20775;-61
2022/04/29 12:05:52;;;;;;;13.60;7.03;;;14.30;99.90;;;;;;5131176;27;20202;-60
2022/04/29 12:08:20;;;;;;;10.60;6.13;;;14.60;99.90;;;;;;5131258;27;20236;-61
2022/04/29 12:10:48;;;;;;;11.97;6.47;;;14.90;99.90;;;;;;5131565;27;20223;-61
2022/04/29 12:13:18;;;;;;;12.57;6.60;;;15.00;99.90;;;;;;5131562;27;20215;-61
2022/04/29 12:15:45;;;;;;;12.53;7.07;;;14.90;99.90;;;;;;5130842;27;20214;-62
2022/04/29 12:18:13;;;;;;;13.20;7.80;;;15.10;99.90;;;;;;5131438;27;20211;-61
2022/04/29 12:20:40;;;;;;;14.77;7.60;;;15.20;99.90;;;;;;5130953;27;20716;-59
2022/04/29 12:23:12;;;;;;;13.87;6.57;;;15.00;99.90;;;;;;5131458;27;20769;-61
2022/04/29 12:25:42;;;;;;;9.77;6.80;;;14.90;99.90;;;;;;5131159;27;20203;-59
2022/04/29 12:28:12;;;;;;;11.57;7.20;;;14.90;99.90;;;;;;5130796;27;20211;-61
2022/04/29 12:36:11;;;;;;;14.00;7.30;;;14.80;99.90;;;;;;5131485;27;20553;-61
2022/04/29 12:38:39;;;;;;;13.13;6.40;;;15.00;99.90;;;;;;5134617;27;20289;-62
2022/04/29 12:41:23;;;;;;;14.60;7.90;;;15.10;99.90;;;;;;5135144;27;20612;-64
2022/04/29 12:43:50;;;;;;;11.73;6.93;;;15.20;99.90;;;;;;5135092;27;20198;-62
2022/04/29 12:46:18;;;;;;;11.67;7.30;;;15.40;99.90;;;;;;5134871;27;20758;-62
2022/04/29 12:48:47;;;;;;;15.33;7.90;;;15.20;99.90;;;;;;5134947;27;20832;-62
2022/04/29 12:51:24;;;;;;;13.83;7.20;;;15.30;99.90;;;;;;5135041;27;20294;-59
2022/04/29 12:53:51;;;;;;;10.47;7.60;;;15.40;99.90;;;;;;5135064;27;20293;-59
2022/04/29 12:56:25;;;;;;;14.80;7.80;;;15.50;99.90;;;;;;5134651;27;20264;-61
2022/04/29 12:58:52;;;;;;;8.83;6.67;;;15.40;99.90;;;;;;5135218;27;20202;-61
2022/04/29 13:01:19;;;;;;;15.17;7.50;;;14.80;99.90;;;;;;5134714;27;20207;-60
2022/04/29 13:03:50;;;;;;;13.30;7.50;;;14.70;99.90;;;;;;5134718;27;20270;-61
2022/04/29 13:06:20;;;;;;;13.70;7.83;;;14.70;99.90;;;;;;5134356;27;20230;-61
2022/04/29 13:08:56;;;;;;;12.87;7.60;;;14.80;99.90;;;;;;5134279;27;20293;-58
2022/04/29 13:11:25;;;;;;;16.20;8.07;;;14.80;99.90;;;;;;5134498;27;20218;-62
2022/04/29 13:13:54;;;;;;;12.77;8.20;;;14.90;99.90;;;;;;5134231;27;20213;-59
2022/04/29 13:16:22;;;;;;;13.47;6.90;;;14.90;99.90;;;;;;5133780;27;20210;-61
2022/04/29 13:18:49;;;;;;;14.93;7.50;;;14.70;99.90;;;;;;5134446;27;20202;-58
2022/04/29 13:21:16;;;;;;;17.10;8.50;;;14.70;99.90;;;;;;5133817;27;20810;-62
2022/04/29 13:23:44;;;;;;;14.30;8.00;;;14.40;99.90;;;;;;5134305;27;20229;-62
2022/04/29 13:26:13;;;;;;;13.60;7.27;;;14.20;99.90;;;;;;5133304;27;20329;-62